sensor_id;sensor_type;location;lat;lon;timestamp;P1;durP1;ratioP1;P2;durP2;ratioP2
61435;SDS011;47304;47.456;19.160;2024-03-08T00:00:11;18.80;;;10.60;;
61435;SDS011;47304;47.456;19.160;2024-03-08T00:02:40;18.00;;;10.10;;
61435;SDS011;47304;47.456;19.160;2024-03-08T00:05:09;18.90;;;9.80;;
61435;SDS011;47304;47.456;19.160;2024-03-08T00:07:37;18.20;;;10.20;;
61435;SDS011;47304;47.456;19.160;2024-03-08T00:10:07;21.30;;;10.80;;
61435;SDS011;47304;47.456;19.160;2024-03-08T00:12:36;17.90;;;10.60;;
61435;SDS011;47304;47.456;19.160;2024-03-08T00:15:07;19.40;;;10.10;;
61435;SDS011;47304;47.456;19.160;2024-03-08T00:17:36;18.20;;;9.90;;
61435;SDS011;47304;47.456;19.160;2024-03-08T00:20:05;20.00;;;9.50;;
61435;SDS011;47304;47.456;19.160;2024-03-08T00:22:34;20.90;;;10.60;;
61435;SDS011;47304;47.456;19.160;2024-03-08T00:25:03;18.50;;;10.20;;
61435;SDS011;47304;47.456;19.160;2024-03-08T00:27:33;20.50;;;11.30;;
61435;SDS011;47304;47.456;19.160;2024-03-08T00:30:01;21.20;;;11.30;;
61435;SDS011;47304;47.456;19.160;2024-03-08T00:32:29;20.20;;;11.10;;
61435;SDS011;47304;47.456;19.160;2024-03-08T00:34:58;19.50;;;10.60;;
61435;SDS011;47304;47.456;19.160;2024-03-08T00:37:26;19.20;;;11.00;;
61435;SDS011;47304;47.456;19.160;2024-03-08T00:39:54;21.20;;;11.90;;
61435;SDS011;47304;47.456;19.160;2024-03-08T00:42:23;26.30;;;12.20;;
61435;SDS011;47304;47.456;19.160;2024-03-08T00:44:51;22.00;;;11.90;;
61435;SDS011;47304;47.456;19.160;2024-03-08T00:47:19;23.70;;;12.00;;
61435;SDS011;47304;47.456;19.160;2024-03-08T00:49:47;22.80;;;12.00;;
61435;SDS011;47304;47.456;19.160;2024-03-08T00:52:15;21.40;;;11.30;;
61435;SDS011;47304;47.456;19.160;2024-03-08T00:54:44;20.50;;;11.60;;
61435;SDS011;47304;47.456;19.160;2024-03-08T00:57:12;21.10;;;11.90;;
61435;SDS011;47304;47.456;19.160;2024-03-08T00:59:40;22.20;;;12.10;;
61435;SDS011;47304;47.456;19.160;2024-03-08T01:02:09;24.10;;;12.50;;
61435;SDS011;47304;47.456;19.160;2024-03-08T01:04:37;23.30;;;12.10;;
61435;SDS011;47304;47.456;19.160;2024-03-08T01:07:06;24.60;;;11.60;;
61435;SDS011;47304;47.456;19.160;2024-03-08T01:09:34;26.40;;;13.40;;
61435;SDS011;47304;47.456;19.160;2024-03-08T01:12:03;22.60;;;12.00;;
61435;SDS011;47304;47.456;19.160;2024-03-08T01:14:31;24.00;;;12.70;;
61435;SDS011;47304;47.456;19.160;2024-03-08T01:16:59;24.50;;;13.20;;
61435;SDS011;47304;47.456;19.160;2024-03-08T01:19:28;27.20;;;13.30;;
61435;SDS011;47304;47.456;19.160;2024-03-08T01:21:56;25.10;;;14.70;;
61435;SDS011;47304;47.456;19.160;2024-03-08T01:24:24;25.30;;;13.50;;
61435;SDS011;47304;47.456;19.160;2024-03-08T01:26:52;25.70;;;13.60;;
61435;SDS011;47304;47.456;19.160;2024-03-08T01:29:21;26.40;;;14.10;;
61435;SDS011;47304;47.456;19.160;2024-03-08T01:31:49;26.30;;;13.70;;
61435;SDS011;47304;47.456;19.160;2024-03-08T01:34:17;24.40;;;13.50;;
61435;SDS011;47304;47.456;19.160;2024-03-08T01:36:45;31.10;;;15.00;;
61435;SDS011;47304;47.456;19.160;2024-03-08T01:39:13;26.00;;;14.30;;
61435;SDS011;47304;47.456;19.160;2024-03-08T01:41:42;28.90;;;14.90;;
61435;SDS011;47304;47.456;19.160;2024-03-08T01:44:10;32.10;;;16.40;;
61435;SDS011;47304;47.456;19.160;2024-03-08T01:46:38;28.70;;;15.00;;
61435;SDS011;47304;47.456;19.160;2024-03-08T01:49:07;32.60;;;16.80;;
61435;SDS011;47304;47.456;19.160;2024-03-08T01:51:35;33.00;;;16.10;;
61435;SDS011;47304;47.456;19.160;2024-03-08T01:54:05;33.40;;;16.00;;
61435;SDS011;47304;47.456;19.160;2024-03-08T01:56:33;32.30;;;16.10;;
61435;SDS011;47304;47.456;19.160;2024-03-08T01:59:01;30.20;;;15.70;;
61435;SDS011;47304;47.456;19.160;2024-03-08T02:01:30;33.50;;;15.70;;
61435;SDS011;47304;47.456;19.160;2024-03-08T02:03:58;31.20;;;16.70;;
61435;SDS011;47304;47.456;19.160;2024-03-08T02:06:27;32.00;;;16.90;;
61435;SDS011;47304;47.456;19.160;2024-03-08T02:08:55;31.30;;;16.70;;
61435;SDS011;47304;47.456;19.160;2024-03-08T02:11:23;31.30;;;16.60;;
61435;SDS011;47304;47.456;19.160;2024-03-08T02:13:52;34.10;;;17.20;;
61435;SDS011;47304;47.456;19.160;2024-03-08T02:16:21;29.80;;;16.50;;
61435;SDS011;47304;47.456;19.160;2024-03-08T02:18:49;35.10;;;18.10;;
61435;SDS011;47304;47.456;19.160;2024-03-08T02:21:17;36.80;;;18.10;;
61435;SDS011;47304;47.456;19.160;2024-03-08T02:23:46;34.90;;;16.70;;
61435;SDS011;47304;47.456;19.160;2024-03-08T02:26:15;32.00;;;16.30;;
61435;SDS011;47304;47.456;19.160;2024-03-08T02:28:43;35.40;;;16.80;;
61435;SDS011;47304;47.456;19.160;2024-03-08T02:31:12;32.70;;;16.50;;
61435;SDS011;47304;47.456;19.160;2024-03-08T02:33:40;32.80;;;17.70;;
61435;SDS011;47304;47.456;19.160;2024-03-08T02:36:09;34.00;;;16.60;;
61435;SDS011;47304;47.456;19.160;2024-03-08T02:38:37;36.10;;;17.20;;
61435;SDS011;47304;47.456;19.160;2024-03-08T02:41:06;33.60;;;17.70;;
61435;SDS011;47304;47.456;19.160;2024-03-08T02:43:34;34.20;;;17.80;;
61435;SDS011;47304;47.456;19.160;2024-03-08T02:46:03;32.40;;;16.20;;
61435;SDS011;47304;47.456;19.160;2024-03-08T02:48:31;37.60;;;17.80;;
61435;SDS011;47304;47.456;19.160;2024-03-08T02:50:59;31.70;;;17.20;;
61435;SDS011;47304;47.456;19.160;2024-03-08T02:53:28;35.90;;;19.20;;
61435;SDS011;47304;47.456;19.160;2024-03-08T02:55:56;38.90;;;18.40;;
61435;SDS011;47304;47.456;19.160;2024-03-08T02:58:25;34.70;;;16.70;;
61435;SDS011;47304;47.456;19.160;2024-03-08T03:00:54;38.50;;;17.80;;
61435;SDS011;47304;47.456;19.160;2024-03-08T03:03:22;33.90;;;17.30;;
61435;SDS011;47304;47.456;19.160;2024-03-08T03:05:50;31.70;;;16.80;;
61435;SDS011;47304;47.456;19.160;2024-03-08T03:08:18;29.10;;;16.10;;
61435;SDS011;47304;47.456;19.160;2024-03-08T03:10:47;33.80;;;17.10;;
61435;SDS011;47304;47.456;19.160;2024-03-08T03:13:15;34.80;;;16.90;;
61435;SDS011;47304;47.456;19.160;2024-03-08T03:15:43;30.60;;;15.90;;
61435;SDS011;47304;47.456;19.160;2024-03-08T03:18:12;30.20;;;16.70;;
61435;SDS011;47304;47.456;19.160;2024-03-08T03:20:40;35.60;;;16.80;;
61435;SDS011;47304;47.456;19.160;2024-03-08T03:23:08;34.10;;;18.40;;
61435;SDS011;47304;47.456;19.160;2024-03-08T03:25:37;32.20;;;16.20;;
61435;SDS011;47304;47.456;19.160;2024-03-08T03:28:05;35.40;;;16.60;;
61435;SDS011;47304;47.456;19.160;2024-03-08T03:30:34;33.70;;;16.90;;
61435;SDS011;47304;47.456;19.160;2024-03-08T03:33:02;35.00;;;16.90;;
61435;SDS011;47304;47.456;19.160;2024-03-08T03:35:31;33.00;;;16.50;;
61435;SDS011;47304;47.456;19.160;2024-03-08T03:37:59;40.80;;;18.20;;
61435;SDS011;47304;47.456;19.160;2024-03-08T03:40:27;39.00;;;18.50;;
61435;SDS011;47304;47.456;19.160;2024-03-08T03:42:55;35.50;;;17.00;;
61435;SDS011;47304;47.456;19.160;2024-03-08T03:45:24;34.80;;;16.70;;
61435;SDS011;47304;47.456;19.160;2024-03-08T03:47:52;35.10;;;17.10;;
61435;SDS011;47304;47.456;19.160;2024-03-08T03:50:20;35.70;;;17.50;;
61435;SDS011;47304;47.456;19.160;2024-03-08T03:52:49;32.20;;;16.80;;
61435;SDS011;47304;47.456;19.160;2024-03-08T03:55:18;33.40;;;17.90;;
61435;SDS011;47304;47.456;19.160;2024-03-08T03:57:46;36.00;;;17.80;;
61435;SDS011;47304;47.456;19.160;2024-03-08T04:00:15;37.20;;;17.30;;
61435;SDS011;47304;47.456;19.160;2024-03-08T04:02:43;36.60;;;17.70;;
61435;SDS011;47304;47.456;19.160;2024-03-08T04:05:12;29.40;;;16.60;;
61435;SDS011;47304;47.456;19.160;2024-03-08T04:07:40;33.30;;;17.50;;
61435;SDS011;47304;47.456;19.160;2024-03-08T04:10:09;33.60;;;17.00;;
61435;SDS011;47304;47.456;19.160;2024-03-08T04:12:37;30.40;;;16.00;;
61435;SDS011;47304;47.456;19.160;2024-03-08T04:15:06;31.80;;;17.30;;
61435;SDS011;47304;47.456;19.160;2024-03-08T04:17:35;37.80;;;17.40;;
61435;SDS011;47304;47.456;19.160;2024-03-08T04:20:04;34.40;;;17.20;;
61435;SDS011;47304;47.456;19.160;2024-03-08T04:22:33;38.50;;;18.10;;
61435;SDS011;47304;47.456;19.160;2024-03-08T04:25:02;32.20;;;16.80;;
61435;SDS011;47304;47.456;19.160;2024-03-08T04:27:31;34.00;;;16.80;;
61435;SDS011;47304;47.456;19.160;2024-03-08T04:29:59;36.50;;;18.60;;
61435;SDS011;47304;47.456;19.160;2024-03-08T04:32:27;34.00;;;17.00;;
61435;SDS011;47304;47.456;19.160;2024-03-08T04:34:56;43.30;;;20.00;;
61435;SDS011;47304;47.456;19.160;2024-03-08T04:37:24;39.80;;;19.30;;
61435;SDS011;47304;47.456;19.160;2024-03-08T04:39:52;32.10;;;16.40;;
61435;SDS011;47304;47.456;19.160;2024-03-08T04:42:20;34.00;;;15.90;;
61435;SDS011;47304;47.456;19.160;2024-03-08T04:44:48;38.20;;;18.20;;
61435;SDS011;47304;47.456;19.160;2024-03-08T04:47:17;35.20;;;17.60;;
61435;SDS011;47304;47.456;19.160;2024-03-08T04:49:45;34.10;;;17.80;;
61435;SDS011;47304;47.456;19.160;2024-03-08T04:52:13;36.50;;;18.50;;
61435;SDS011;47304;47.456;19.160;2024-03-08T04:54:41;34.40;;;16.90;;
61435;SDS011;47304;47.456;19.160;2024-03-08T04:57:10;36.40;;;17.30;;
61435;SDS011;47304;47.456;19.160;2024-03-08T04:59:38;37.00;;;18.50;;
61435;SDS011;47304;47.456;19.160;2024-03-08T05:02:06;40.30;;;18.60;;
61435;SDS011;47304;47.456;19.160;2024-03-08T05:04:34;35.70;;;17.40;;
61435;SDS011;47304;47.456;19.160;2024-03-08T05:07:03;36.10;;;17.80;;
61435;SDS011;47304;47.456;19.160;2024-03-08T05:09:31;37.60;;;18.30;;
61435;SDS011;47304;47.456;19.160;2024-03-08T05:11:59;32.80;;;17.30;;
61435;SDS011;47304;47.456;19.160;2024-03-08T05:14:28;36.10;;;17.90;;
61435;SDS011;47304;47.456;19.160;2024-03-08T05:16:56;35.80;;;17.60;;
61435;SDS011;47304;47.456;19.160;2024-03-08T05:19:24;33.60;;;17.50;;
61435;SDS011;47304;47.456;19.160;2024-03-08T05:21:53;37.50;;;16.70;;
61435;SDS011;47304;47.456;19.160;2024-03-08T05:24:21;37.20;;;18.20;;
61435;SDS011;47304;47.456;19.160;2024-03-08T05:26:49;37.70;;;17.60;;
61435;SDS011;47304;47.456;19.160;2024-03-08T05:29:17;37.50;;;17.50;;
61435;SDS011;47304;47.456;19.160;2024-03-08T05:31:47;36.20;;;17.40;;
61435;SDS011;47304;47.456;19.160;2024-03-08T05:34:16;35.00;;;17.90;;
61435;SDS011;47304;47.456;19.160;2024-03-08T05:36:45;32.00;;;17.00;;
61435;SDS011;47304;47.456;19.160;2024-03-08T05:39:13;37.80;;;18.70;;
61435;SDS011;47304;47.456;19.160;2024-03-08T05:41:42;38.40;;;19.50;;
61435;SDS011;47304;47.456;19.160;2024-03-08T05:44:10;34.80;;;18.30;;
61435;SDS011;47304;47.456;19.160;2024-03-08T05:46:39;28.70;;;16.10;;
61435;SDS011;47304;47.456;19.160;2024-03-08T05:49:07;32.80;;;16.30;;
61435;SDS011;47304;47.456;19.160;2024-03-08T05:51:36;34.40;;;16.60;;
61435;SDS011;47304;47.456;19.160;2024-03-08T05:54:05;33.00;;;17.60;;
61435;SDS011;47304;47.456;19.160;2024-03-08T05:56:34;33.50;;;16.80;;
61435;SDS011;47304;47.456;19.160;2024-03-08T05:59:04;32.10;;;16.10;;
61435;SDS011;47304;47.456;19.160;2024-03-08T06:01:33;36.30;;;16.80;;
61435;SDS011;47304;47.456;19.160;2024-03-08T06:04:01;30.90;;;16.50;;
61435;SDS011;47304;47.456;19.160;2024-03-08T06:06:30;34.50;;;17.20;;
61435;SDS011;47304;47.456;19.160;2024-03-08T06:08:59;33.50;;;17.10;;
61435;SDS011;47304;47.456;19.160;2024-03-08T06:11:27;34.90;;;18.10;;
61435;SDS011;47304;47.456;19.160;2024-03-08T06:13:55;33.40;;;15.60;;
61435;SDS011;47304;47.456;19.160;2024-03-08T06:16:23;33.10;;;16.40;;
61435;SDS011;47304;47.456;19.160;2024-03-08T06:18:51;34.80;;;18.30;;
61435;SDS011;47304;47.456;19.160;2024-03-08T06:21:20;33.60;;;16.20;;
61435;SDS011;47304;47.456;19.160;2024-03-08T06:23:48;33.90;;;16.60;;
61435;SDS011;47304;47.456;19.160;2024-03-08T06:26:16;32.60;;;17.30;;
61435;SDS011;47304;47.456;19.160;2024-03-08T06:28:44;38.10;;;18.00;;
61435;SDS011;47304;47.456;19.160;2024-03-08T06:31:12;32.40;;;17.40;;
61435;SDS011;47304;47.456;19.160;2024-03-08T06:33:41;34.80;;;17.00;;
61435;SDS011;47304;47.456;19.160;2024-03-08T06:36:10;31.60;;;17.00;;
61435;SDS011;47304;47.456;19.160;2024-03-08T06:38:38;32.40;;;16.90;;
61435;SDS011;47304;47.456;19.160;2024-03-08T06:41:06;35.40;;;17.40;;
61435;SDS011;47304;47.456;19.160;2024-03-08T06:43:34;30.20;;;16.70;;
61435;SDS011;47304;47.456;19.160;2024-03-08T06:46:02;32.30;;;17.50;;
61435;SDS011;47304;47.456;19.160;2024-03-08T06:48:31;38.20;;;18.00;;
61435;SDS011;47304;47.456;19.160;2024-03-08T06:51:00;34.50;;;16.60;;
61435;SDS011;47304;47.456;19.160;2024-03-08T06:53:28;32.20;;;17.30;;
61435;SDS011;47304;47.456;19.160;2024-03-08T06:55:56;34.80;;;17.90;;
61435;SDS011;47304;47.456;19.160;2024-03-08T06:58:24;36.60;;;18.30;;
61435;SDS011;47304;47.456;19.160;2024-03-08T07:00:52;33.90;;;18.80;;
61435;SDS011;47304;47.456;19.160;2024-03-08T07:03:20;35.10;;;17.50;;
61435;SDS011;47304;47.456;19.160;2024-03-08T07:05:49;32.70;;;17.60;;
61435;SDS011;47304;47.456;19.160;2024-03-08T07:08:17;35.30;;;17.50;;
61435;SDS011;47304;47.456;19.160;2024-03-08T07:10:45;36.10;;;18.00;;
61435;SDS011;47304;47.456;19.160;2024-03-08T07:13:14;39.60;;;19.60;;
61435;SDS011;47304;47.456;19.160;2024-03-08T07:15:42;44.40;;;19.60;;
61435;SDS011;47304;47.456;19.160;2024-03-08T07:18:10;45.90;;;21.10;;
61435;SDS011;47304;47.456;19.160;2024-03-08T07:20:39;42.20;;;20.90;;
61435;SDS011;47304;47.456;19.160;2024-03-08T07:23:07;42.70;;;22.00;;
61435;SDS011;47304;47.456;19.160;2024-03-08T07:25:35;36.80;;;19.60;;
61435;SDS011;47304;47.456;19.160;2024-03-08T07:28:04;34.80;;;19.10;;
61435;SDS011;47304;47.456;19.160;2024-03-08T07:30:32;37.40;;;19.30;;
61435;SDS011;47304;47.456;19.160;2024-03-08T07:33:01;37.30;;;18.90;;
61435;SDS011;47304;47.456;19.160;2024-03-08T07:35:29;37.20;;;19.40;;
61435;SDS011;47304;47.456;19.160;2024-03-08T07:37:57;37.90;;;17.60;;
61435;SDS011;47304;47.456;19.160;2024-03-08T07:40:26;36.90;;;18.00;;
61435;SDS011;47304;47.456;19.160;2024-03-08T07:42:54;38.30;;;17.90;;
61435;SDS011;47304;47.456;19.160;2024-03-08T07:45:22;34.60;;;17.30;;
61435;SDS011;47304;47.456;19.160;2024-03-08T07:47:50;34.40;;;17.60;;
61435;SDS011;47304;47.456;19.160;2024-03-08T07:50:18;38.00;;;17.60;;
61435;SDS011;47304;47.456;19.160;2024-03-08T07:52:47;37.50;;;18.80;;
61435;SDS011;47304;47.456;19.160;2024-03-08T07:55:15;38.80;;;17.70;;
61435;SDS011;47304;47.456;19.160;2024-03-08T07:57:43;38.30;;;18.40;;
61435;SDS011;47304;47.456;19.160;2024-03-08T08:00:12;41.30;;;19.40;;
61435;SDS011;47304;47.456;19.160;2024-03-08T08:02:41;38.50;;;18.70;;
61435;SDS011;47304;47.456;19.160;2024-03-08T08:05:09;41.10;;;19.10;;
61435;SDS011;47304;47.456;19.160;2024-03-08T08:07:38;39.70;;;18.10;;
61435;SDS011;47304;47.456;19.160;2024-03-08T08:10:07;38.10;;;18.40;;
61435;SDS011;47304;47.456;19.160;2024-03-08T08:12:36;41.50;;;19.10;;
61435;SDS011;47304;47.456;19.160;2024-03-08T08:15:05;40.40;;;18.20;;
61435;SDS011;47304;47.456;19.160;2024-03-08T08:17:33;37.40;;;18.70;;
61435;SDS011;47304;47.456;19.160;2024-03-08T08:20:02;40.00;;;19.00;;
61435;SDS011;47304;47.456;19.160;2024-03-08T08:22:32;34.10;;;17.30;;
61435;SDS011;47304;47.456;19.160;2024-03-08T08:25:00;39.20;;;18.30;;
61435;SDS011;47304;47.456;19.160;2024-03-08T08:27:28;39.20;;;19.00;;
61435;SDS011;47304;47.456;19.160;2024-03-08T08:29:57;37.90;;;18.60;;
61435;SDS011;47304;47.456;19.160;2024-03-08T08:32:25;38.50;;;18.20;;
61435;SDS011;47304;47.456;19.160;2024-03-08T08:34:53;38.90;;;17.20;;
61435;SDS011;47304;47.456;19.160;2024-03-08T08:37:21;37.40;;;18.90;;
61435;SDS011;47304;47.456;19.160;2024-03-08T08:39:50;37.70;;;19.00;;
61435;SDS011;47304;47.456;19.160;2024-03-08T08:42:18;37.30;;;18.00;;
61435;SDS011;47304;47.456;19.160;2024-03-08T08:44:46;42.10;;;19.20;;
61435;SDS011;47304;47.456;19.160;2024-03-08T08:47:14;37.10;;;18.20;;
61435;SDS011;47304;47.456;19.160;2024-03-08T08:49:43;41.10;;;19.30;;
61435;SDS011;47304;47.456;19.160;2024-03-08T08:52:11;41.60;;;19.60;;
61435;SDS011;47304;47.456;19.160;2024-03-08T08:54:39;41.90;;;22.40;;
61435;SDS011;47304;47.456;19.160;2024-03-08T08:57:07;39.20;;;18.50;;
61435;SDS011;47304;47.456;19.160;2024-03-08T08:59:36;37.40;;;19.60;;
61435;SDS011;47304;47.456;19.160;2024-03-08T09:02:04;39.70;;;19.80;;
61435;SDS011;47304;47.456;19.160;2024-03-08T09:04:32;43.60;;;19.80;;
61435;SDS011;47304;47.456;19.160;2024-03-08T09:07:01;37.60;;;18.20;;
61435;SDS011;47304;47.456;19.160;2024-03-08T09:09:29;36.60;;;18.00;;
61435;SDS011;47304;47.456;19.160;2024-03-08T09:11:58;35.20;;;19.30;;
61435;SDS011;47304;47.456;19.160;2024-03-08T09:14:26;39.30;;;18.20;;
61435;SDS011;47304;47.456;19.160;2024-03-08T09:16:54;37.70;;;19.10;;
61435;SDS011;47304;47.456;19.160;2024-03-08T09:19:22;36.80;;;18.70;;
61435;SDS011;47304;47.456;19.160;2024-03-08T09:21:51;35.90;;;18.30;;
61435;SDS011;47304;47.456;19.160;2024-03-08T09:24:20;34.70;;;18.90;;
61435;SDS011;47304;47.456;19.160;2024-03-08T09:26:48;36.70;;;17.50;;
61435;SDS011;47304;47.456;19.160;2024-03-08T09:29:16;34.70;;;18.70;;
61435;SDS011;47304;47.456;19.160;2024-03-08T09:31:45;36.30;;;18.60;;
61435;SDS011;47304;47.456;19.160;2024-03-08T09:34:13;37.50;;;18.50;;
61435;SDS011;47304;47.456;19.160;2024-03-08T09:36:41;37.30;;;18.00;;
61435;SDS011;47304;47.456;19.160;2024-03-08T09:39:09;37.30;;;17.50;;
61435;SDS011;47304;47.456;19.160;2024-03-08T09:41:37;40.50;;;21.10;;
61435;SDS011;47304;47.456;19.160;2024-03-08T09:44:06;39.10;;;19.60;;
61435;SDS011;47304;47.456;19.160;2024-03-08T09:46:34;28.80;;;15.50;;
61435;SDS011;47304;47.456;19.160;2024-03-08T09:49:03;35.20;;;18.60;;
61435;SDS011;47304;47.456;19.160;2024-03-08T09:51:31;37.30;;;19.60;;
61435;SDS011;47304;47.456;19.160;2024-03-08T09:54:01;36.10;;;17.20;;
61435;SDS011;47304;47.456;19.160;2024-03-08T09:56:29;34.30;;;18.00;;
61435;SDS011;47304;47.456;19.160;2024-03-08T09:59:01;32.70;;;16.20;;
61435;SDS011;47304;47.456;19.160;2024-03-08T10:01:29;38.60;;;19.00;;
61435;SDS011;47304;47.456;19.160;2024-03-08T10:03:58;31.00;;;17.20;;
61435;SDS011;47304;47.456;19.160;2024-03-08T10:06:26;35.50;;;17.90;;
61435;SDS011;47304;47.456;19.160;2024-03-08T10:08:54;34.70;;;18.60;;
61435;SDS011;47304;47.456;19.160;2024-03-08T10:11:22;35.20;;;18.20;;
61435;SDS011;47304;47.456;19.160;2024-03-08T10:13:51;34.70;;;18.00;;
61435;SDS011;47304;47.456;19.160;2024-03-08T10:16:19;34.00;;;18.70;;
61435;SDS011;47304;47.456;19.160;2024-03-08T10:18:48;35.30;;;18.60;;
61435;SDS011;47304;47.456;19.160;2024-03-08T10:21:16;34.60;;;17.80;;
61435;SDS011;47304;47.456;19.160;2024-03-08T10:23:44;29.90;;;16.00;;
61435;SDS011;47304;47.456;19.160;2024-03-08T10:26:13;38.30;;;18.80;;
61435;SDS011;47304;47.456;19.160;2024-03-08T10:28:42;36.40;;;19.20;;
61435;SDS011;47304;47.456;19.160;2024-03-08T10:31:13;35.50;;;18.60;;
61435;SDS011;47304;47.456;19.160;2024-03-08T10:33:41;35.00;;;18.40;;
61435;SDS011;47304;47.456;19.160;2024-03-08T10:36:10;35.60;;;18.90;;
61435;SDS011;47304;47.456;19.160;2024-03-08T10:38:41;35.60;;;18.70;;
61435;SDS011;47304;47.456;19.160;2024-03-08T10:41:10;34.50;;;18.80;;
61435;SDS011;47304;47.456;19.160;2024-03-08T10:43:43;35.20;;;19.50;;
61435;SDS011;47304;47.456;19.160;2024-03-08T10:46:25;36.60;;;18.90;;
61435;SDS011;47304;47.456;19.160;2024-03-08T10:49:10;39.50;;;20.10;;
61435;SDS011;47304;47.456;19.160;2024-03-08T10:51:43;36.40;;;18.10;;
61435;SDS011;47304;47.456;19.160;2024-03-08T10:54:12;37.00;;;18.50;;
61435;SDS011;47304;47.456;19.160;2024-03-08T10:56:42;35.10;;;18.10;;
61435;SDS011;47304;47.456;19.160;2024-03-08T10:59:12;35.10;;;17.60;;
61435;SDS011;47304;47.456;19.160;2024-03-08T11:01:41;36.60;;;18.80;;
61435;SDS011;47304;47.456;19.160;2024-03-08T11:04:09;33.00;;;16.60;;
61435;SDS011;47304;47.456;19.160;2024-03-08T11:06:42;34.10;;;18.20;;
61435;SDS011;47304;47.456;19.160;2024-03-08T11:14:47;35.10;;;19.90;;
61435;SDS011;47304;47.456;19.160;2024-03-08T11:17:16;38.80;;;20.10;;
61435;SDS011;47304;47.456;19.160;2024-03-08T11:19:51;42.30;;;20.60;;
61435;SDS011;47304;47.456;19.160;2024-03-08T11:22:23;35.30;;;18.80;;
61435;SDS011;47304;47.456;19.160;2024-03-08T11:24:55;31.80;;;17.20;;
61435;SDS011;47304;47.456;19.160;2024-03-08T11:27:29;38.00;;;19.40;;
61435;SDS011;47304;47.456;19.160;2024-03-08T11:30:01;34.30;;;19.40;;
61435;SDS011;47304;47.456;19.160;2024-03-08T11:32:30;34.90;;;18.70;;
61435;SDS011;47304;47.456;19.160;2024-03-08T11:34:58;36.00;;;19.00;;
61435;SDS011;47304;47.456;19.160;2024-03-08T11:37:27;32.30;;;18.20;;
61435;SDS011;47304;47.456;19.160;2024-03-08T11:39:56;33.70;;;18.90;;
61435;SDS011;47304;47.456;19.160;2024-03-08T11:42:24;31.30;;;17.50;;
61435;SDS011;47304;47.456;19.160;2024-03-08T11:44:53;33.20;;;19.40;;
61435;SDS011;47304;47.456;19.160;2024-03-08T11:47:21;35.20;;;19.30;;
61435;SDS011;47304;47.456;19.160;2024-03-08T11:49:50;34.00;;;18.60;;
61435;SDS011;47304;47.456;19.160;2024-03-08T11:52:18;34.90;;;19.40;;
61435;SDS011;47304;47.456;19.160;2024-03-08T11:54:53;34.30;;;18.70;;
61435;SDS011;47304;47.456;19.160;2024-03-08T11:57:22;30.90;;;18.80;;
61435;SDS011;47304;47.456;19.160;2024-03-08T11:59:53;30.50;;;17.40;;
61435;SDS011;47304;47.456;19.160;2024-03-08T12:02:22;29.80;;;18.30;;
61435;SDS011;47304;47.456;19.160;2024-03-08T12:04:56;28.30;;;17.40;;
61435;SDS011;47304;47.456;19.160;2024-03-08T12:07:25;29.40;;;16.60;;
61435;SDS011;47304;47.456;19.160;2024-03-08T12:12:46;21.50;;;13.70;;
61435;SDS011;47304;47.456;19.160;2024-03-08T12:15:16;22.30;;;13.00;;
61435;SDS011;47304;47.456;19.160;2024-03-08T12:17:45;20.00;;;13.00;;
61435;SDS011;47304;47.456;19.160;2024-03-08T12:20:16;22.70;;;13.00;;
61435;SDS011;47304;47.456;19.160;2024-03-08T12:22:46;19.90;;;12.50;;
61435;SDS011;47304;47.456;19.160;2024-03-08T12:25:15;21.20;;;13.50;;
61435;SDS011;47304;47.456;19.160;2024-03-08T12:27:44;20.90;;;13.40;;
61435;SDS011;47304;47.456;19.160;2024-03-08T12:30:19;21.10;;;13.10;;
61435;SDS011;47304;47.456;19.160;2024-03-08T12:32:50;20.90;;;13.30;;
61435;SDS011;47304;47.456;19.160;2024-03-08T12:35:20;21.10;;;13.40;;
61435;SDS011;47304;47.456;19.160;2024-03-08T12:37:50;22.90;;;14.30;;
61435;SDS011;47304;47.456;19.160;2024-03-08T12:40:19;21.10;;;13.80;;
61435;SDS011;47304;47.456;19.160;2024-03-08T12:42:51;22.20;;;13.90;;
61435;SDS011;47304;47.456;19.160;2024-03-08T12:45:20;22.60;;;12.80;;
61435;SDS011;47304;47.456;19.160;2024-03-08T12:47:48;22.10;;;13.60;;
61435;SDS011;47304;47.456;19.160;2024-03-08T12:50:17;20.20;;;12.60;;
61435;SDS011;47304;47.456;19.160;2024-03-08T12:52:45;19.80;;;12.50;;
61435;SDS011;47304;47.456;19.160;2024-03-08T12:55:13;19.10;;;11.80;;
61435;SDS011;47304;47.456;19.160;2024-03-08T12:57:42;17.80;;;10.90;;
61435;SDS011;47304;47.456;19.160;2024-03-08T13:00:13;17.30;;;10.80;;
61435;SDS011;47304;47.456;19.160;2024-03-08T13:02:42;16.20;;;9.80;;
61435;SDS011;47304;47.456;19.160;2024-03-08T13:05:10;17.50;;;11.00;;
61435;SDS011;47304;47.456;19.160;2024-03-08T13:07:38;23.50;;;13.40;;
61435;SDS011;47304;47.456;19.160;2024-03-08T13:10:08;22.60;;;13.50;;
61435;SDS011;47304;47.456;19.160;2024-03-08T13:12:37;24.00;;;14.70;;
61435;SDS011;47304;47.456;19.160;2024-03-08T13:15:05;24.80;;;15.40;;
61435;SDS011;47304;47.456;19.160;2024-03-08T13:17:34;26.50;;;15.80;;
61435;SDS011;47304;47.456;19.160;2024-03-08T13:20:02;27.50;;;16.20;;
61435;SDS011;47304;47.456;19.160;2024-03-08T13:22:32;27.00;;;15.60;;
61435;SDS011;47304;47.456;19.160;2024-03-08T13:25:00;27.40;;;15.60;;
61435;SDS011;47304;47.456;19.160;2024-03-08T13:27:29;25.70;;;13.40;;
61435;SDS011;47304;47.456;19.160;2024-03-08T13:29:58;26.50;;;15.20;;
61435;SDS011;47304;47.456;19.160;2024-03-08T13:32:26;25.40;;;14.90;;
61435;SDS011;47304;47.456;19.160;2024-03-08T13:34:54;25.50;;;14.90;;
61435;SDS011;47304;47.456;19.160;2024-03-08T13:37:22;27.50;;;15.70;;
61435;SDS011;47304;47.456;19.160;2024-03-08T13:39:50;25.60;;;14.30;;
61435;SDS011;47304;47.456;19.160;2024-03-08T13:42:18;23.10;;;14.30;;
61435;SDS011;47304;47.456;19.160;2024-03-08T13:44:47;27.80;;;15.80;;
61435;SDS011;47304;47.456;19.160;2024-03-08T13:47:15;27.50;;;15.20;;
61435;SDS011;47304;47.456;19.160;2024-03-08T13:49:44;26.40;;;16.10;;
61435;SDS011;47304;47.456;19.160;2024-03-08T13:52:12;26.90;;;15.30;;
61435;SDS011;47304;47.456;19.160;2024-03-08T13:54:41;27.60;;;15.20;;
61435;SDS011;47304;47.456;19.160;2024-03-08T13:57:09;25.00;;;14.20;;
61435;SDS011;47304;47.456;19.160;2024-03-08T13:59:37;26.70;;;15.00;;
61435;SDS011;47304;47.456;19.160;2024-03-08T14:02:05;29.40;;;15.30;;
61435;SDS011;47304;47.456;19.160;2024-03-08T14:04:34;23.50;;;14.10;;
61435;SDS011;47304;47.456;19.160;2024-03-08T14:07:03;29.40;;;15.60;;
61435;SDS011;47304;47.456;19.160;2024-03-08T14:09:31;27.00;;;15.80;;
61435;SDS011;47304;47.456;19.160;2024-03-08T14:12:00;29.50;;;15.30;;
61435;SDS011;47304;47.456;19.160;2024-03-08T14:14:28;27.40;;;15.60;;
61435;SDS011;47304;47.456;19.160;2024-03-08T14:16:57;28.70;;;16.20;;
61435;SDS011;47304;47.456;19.160;2024-03-08T14:19:25;29.80;;;15.40;;
61435;SDS011;47304;47.456;19.160;2024-03-08T14:21:53;28.30;;;15.60;;
61435;SDS011;47304;47.456;19.160;2024-03-08T14:24:22;28.10;;;16.10;;